Time;durP1;ratioP1;P1;durP2;ratioP2;P2;SDS_P1;SDS_P2;PMS_P1;PMS_P2;Temp;Humidity;BMP_temperature;BMP_pressure;BME280_temperature;BME280_humidity;BME280_pressure;Samples;Min_cycle;Max_cycle;Signal;HPM_P1;HPM_P2
2023/08/20 00:02:24;;;;;;;2.72;2.17;;;;;;;;;;4990689;28;20126;-78
2023/08/20 00:04:50;;;;;;;3.83;2.72;;;;;;;;;;5006279;28;20490;-78
2023/08/20 00:07:18;;;;;;;3.25;2.53;;;;;;;;;;5010993;28;20036;-78
2023/08/20 00:09:44;;;;;;;3.13;2.33;;;;;;;;;;5010545;28;20441;-78
2023/08/20 00:12:10;;;;;;;4.03;2.35;;;;;;;;;;5010666;28;20021;-78
2023/08/20 00:14:58;;;;;;;3.33;2.25;;;;;;;;;;5005353;28;20033;-78
2023/08/20 00:17:26;;;;;;;3.17;2.40;;;;;;;;;;4991299;28;20022;-78
2023/08/20 00:19:53;;;;;;;3.88;1.80;;;;;;;;;;4996968;28;20351;-78
2023/08/20 00:22:19;;;;;;;3.47;2.70;;;;;;;;;;5010397;28;20041;-78
2023/08/20 00:24:45;;;;;;;3.30;2.30;;;;;;;;;;5008556;28;20065;-78
2023/08/20 00:27:11;;;;;;;3.72;2.17;;;;;;;;;;5010397;28;20037;-79
2023/08/20 00:29:37;;;;;;;3.72;2.38;;;;;;;;;;5010213;28;20021;-78
2023/08/20 00:32:03;;;;;;;2.88;2.03;;;;;;;;;;5010302;28;20037;-78
2023/08/20 00:34:29;;;;;;;3.58;2.50;;;;;;;;;;5002419;28;20026;-78
2023/08/20 00:36:55;;;;;;;3.03;2.28;;;;;;;;;;5002412;28;20045;-78
2023/08/20 00:39:21;;;;;;;4.15;2.17;;;;;;;;;;4990610;28;20034;-78
2023/08/20 00:41:47;;;;;;;3.75;2.45;;;;;;;;;;4990180;28;20509;-78
2023/08/20 00:44:13;;;;;;;2.88;2.45;;;;;;;;;;4994116;28;20394;-79
2023/08/20 00:46:39;;;;;;;3.17;2.20;;;;;;;;;;4996566;28;20077;-78
2023/08/20 00:49:05;;;;;;;2.38;2.17;;;;;;;;;;4990262;28;20382;-78
2023/08/20 00:51:33;;;;;;;3.67;2.42;;;;;;;;;;4990622;28;20030;-79
2023/08/20 00:53:59;;;;;;;4.18;2.58;;;;;;;;;;5005721;28;20033;-79
2023/08/20 00:56:25;;;;;;;3.95;2.92;;;;;;;;;;4995754;28;20499;-79
2023/08/20 00:58:51;;;;;;;2.80;2.35;;;;;;;;;;4989604;28;20050;-78
2023/08/20 01:01:17;;;;;;;4.53;2.42;;;;;;;;;;4990488;28;20041;-78
2023/08/20 01:03:43;;;;;;;3.85;2.60;;;;;;;;;;4999649;28;20689;-78
2023/08/20 01:06:18;;;;;;;4.20;2.47;;;;;;;;;;5008368;28;20034;-79
2023/08/20 01:08:50;;;;;;;3.42;2.40;;;;;;;;;;4990012;28;20570;-78
2023/08/20 01:11:26;;;;;;;4.68;2.72;;;;;;;;;;4990239;28;20080;-78
2023/08/20 01:13:54;;;;;;;2.67;2.22;;;;;;;;;;4996044;28;20036;-78
2023/08/20 01:16:20;;;;;;;2.85;1.98;;;;;;;;;;5003668;28;20041;-78
2023/08/20 01:18:47;;;;;;;2.40;2.03;;;;;;;;;;4989951;28;20033;-78
2023/08/20 01:21:33;;;;;;;3.13;2.50;;;;;;;;;;5006967;28;20034;-78
2023/08/20 01:24:06;;;;;;;3.08;2.30;;;;;;;;;;5008669;28;20092;-77
2023/08/20 01:26:41;;;;;;;4.00;2.90;;;;;;;;;;5008294;28;20034;-78
2023/08/20 01:29:07;;;;;;;4.25;2.70;;;;;;;;;;5009245;28;20084;-78
2023/08/20 01:31:33;;;;;;;3.00;2.20;;;;;;;;;;5008179;28;20394;-79
2023/08/20 01:34:00;;;;;;;3.83;2.25;;;;;;;;;;5002480;28;20065;-78
2023/08/20 01:36:26;;;;;;;3.00;2.50;;;;;;;;;;5008002;28;20104;-78
2023/08/20 01:38:52;;;;;;;4.50;2.28;;;;;;;;;;4993244;28;20057;-78
2023/08/20 01:41:18;;;;;;;2.92;2.60;;;;;;;;;;4989780;28;20599;-78
2023/08/20 01:43:44;;;;;;;3.00;2.17;;;;;;;;;;4991290;28;20030;-78
2023/08/20 01:46:10;;;;;;;3.90;2.20;;;;;;;;;;5009073;28;20040;-78
2023/08/20 01:48:36;;;;;;;3.35;2.45;;;;;;;;;;5009002;28;20113;-79
2023/08/20 01:51:02;;;;;;;3.03;2.53;;;;;;;;;;5008716;28;20026;-78
2023/08/20 01:53:28;;;;;;;3.53;2.22;;;;;;;;;;5008587;28;20104;-79
2023/08/20 01:55:54;;;;;;;3.17;2.33;;;;;;;;;;5005264;28;20030;-78
2023/08/20 01:58:20;;;;;;;3.80;2.47;;;;;;;;;;5008767;28;20030;-78
2023/08/20 02:00:46;;;;;;;4.65;2.40;;;;;;;;;;5007425;28;20565;-78
2023/08/20 02:03:12;;;;;;;3.03;2.30;;;;;;;;;;5008710;28;20026;-78
2023/08/20 02:05:38;;;;;;;3.33;2.60;;;;;;;;;;5004534;28;20479;-78
2023/08/20 02:08:04;;;;;;;3.25;2.33;;;;;;;;;;5007433;28;20088;-78
2023/08/20 02:10:30;;;;;;;3.95;2.40;;;;;;;;;;5006616;28;20486;-78
2023/08/20 02:12:56;;;;;;;2.92;2.28;;;;;;;;;;5007965;28;20026;-78
2023/08/20 02:15:22;;;;;;;2.45;2.05;;;;;;;;;;5006247;28;20037;-78
2023/08/20 02:17:48;;;;;;;3.78;2.30;;;;;;;;;;4993231;28;20054;-78
2023/08/20 02:20:14;;;;;;;3.35;2.58;;;;;;;;;;4997516;28;20570;-78
2023/08/20 02:22:40;;;;;;;3.75;2.15;;;;;;;;;;5008387;28;20021;-78
2023/08/20 02:25:06;;;;;;;4.00;2.78;;;;;;;;;;5007737;28;20042;-79
2023/08/20 02:27:32;;;;;;;5.40;2.50;;;;;;;;;;5005102;28;20478;-79
2023/08/20 02:29:59;;;;;;;3.35;2.58;;;;;;;;;;5007587;28;20036;-78
2023/08/20 02:32:25;;;;;;;3.00;2.38;;;;;;;;;;5008490;28;20057;-78
2023/08/20 02:34:52;;;;;;;4.25;2.67;;;;;;;;;;5008132;28;20029;-78
2023/08/20 02:37:18;;;;;;;4.55;2.70;;;;;;;;;;5004954;28;20114;-78
2023/08/20 02:39:44;;;;;;;3.38;2.45;;;;;;;;;;4989647;28;20413;-78
2023/08/20 02:42:10;;;;;;;3.72;2.47;;;;;;;;;;5008239;28;20026;-78
2023/08/20 02:44:35;;;;;;;2.95;2.60;;;;;;;;;;4998369;28;20526;-78
2023/08/20 02:47:02;;;;;;;3.60;2.58;;;;;;;;;;4988378;28;20395;-78
2023/08/20 02:49:28;;;;;;;2.95;1.98;;;;;;;;;;4988948;28;20031;-79
2023/08/20 02:51:54;;;;;;;2.50;2.00;;;;;;;;;;5001412;28;20390;-78
2023/08/20 02:54:20;;;;;;;2.95;2.33;;;;;;;;;;5007316;28;20037;-78
2023/08/20 02:56:46;;;;;;;4.22;2.78;;;;;;;;;;4992768;28;20022;-78
2023/08/20 02:59:12;;;;;;;4.10;2.60;;;;;;;;;;5006556;28;20042;-78
2023/08/20 03:01:38;;;;;;;3.17;2.42;;;;;;;;;;5008285;28;20026;-78
2023/08/20 03:04:04;;;;;;;2.35;2.13;;;;;;;;;;5006457;28;20081;-78
2023/08/20 03:06:30;;;;;;;2.80;2.03;;;;;;;;;;4992231;28;20034;-78
2023/08/20 03:08:56;;;;;;;3.67;2.58;;;;;;;;;;5002019;28;20037;-78
2023/08/20 03:11:21;;;;;;;5.68;2.50;;;;;;;;;;5011517;28;20029;-78
2023/08/20 03:13:47;;;;;;;3.13;2.15;;;;;;;;;;5011724;28;20033;-78
2023/08/20 03:16:13;;;;;;;3.88;2.40;;;;;;;;;;5008209;28;20029;-78
2023/08/20 03:18:39;;;;;;;2.92;2.05;;;;;;;;;;5004327;28;20045;-78
2023/08/20 03:21:05;;;;;;;3.33;2.55;;;;;;;;;;5010282;28;20046;-78
2023/08/20 03:23:31;;;;;;;2.55;2.10;;;;;;;;;;5011671;28;20030;-78
2023/08/20 03:26:00;;;;;;;3.67;2.38;;;;;;;;;;5005633;28;20030;-78
2023/08/20 03:28:26;;;;;;;4.53;2.58;;;;;;;;;;5010841;28;20389;-78
2023/08/20 03:30:52;;;;;;;3.50;2.80;;;;;;;;;;5011573;28;20037;-79
2023/08/20 03:33:18;;;;;;;3.25;1.95;;;;;;;;;;5011391;28;20466;-78
2023/08/20 03:35:46;;;;;;;4.32;2.85;;;;;;;;;;5008897;28;20026;-78
2023/08/20 03:38:12;;;;;;;3.72;2.47;;;;;;;;;;5006099;28;20030;-78
2023/08/20 03:40:38;;;;;;;3.28;2.50;;;;;;;;;;5011276;28;20022;-78
2023/08/20 03:43:04;;;;;;;3.03;2.17;;;;;;;;;;5011236;28;20042;-78
2023/08/20 03:45:30;;;;;;;3.60;2.47;;;;;;;;;;5010836;28;20423;-78
2023/08/20 03:47:56;;;;;;;3.15;2.28;;;;;;;;;;4999716;28;20447;-78
2023/08/20 03:50:22;;;;;;;2.95;2.30;;;;;;;;;;5010415;28;20208;-78
2023/08/20 03:52:48;;;;;;;3.63;2.42;;;;;;;;;;5011141;28;20030;-78
2023/08/20 03:55:14;;;;;;;3.35;2.45;;;;;;;;;;5011182;28;20037;-78
2023/08/20 03:57:40;;;;;;;3.70;2.60;;;;;;;;;;5008777;28;20026;-78
2023/08/20 04:00:10;;;;;;;5.05;2.63;;;;;;;;;;5005449;28;20045;-78
2023/08/20 04:02:36;;;;;;;4.13;3.00;;;;;;;;;;5010303;28;20497;-78
2023/08/20 04:05:02;;;;;;;4.57;2.95;;;;;;;;;;5010603;28;20022;-78
2023/08/20 04:07:30;;;;;;;3.65;2.60;;;;;;;;;;5008105;28;20042;-78
2023/08/20 04:09:56;;;;;;;5.38;2.55;;;;;;;;;;4998865;28;20033;-78
2023/08/20 04:12:21;;;;;;;3.80;2.63;;;;;;;;;;5010938;28;20065;-78
2023/08/20 04:14:47;;;;;;;3.88;2.72;;;;;;;;;;5010277;28;20037;-78
2023/08/20 04:17:13;;;;;;;3.15;2.58;;;;;;;;;;5010750;28;20026;-78
2023/08/20 04:19:39;;;;;;;4.43;2.50;;;;;;;;;;5007162;28;20025;-77
2023/08/20 04:22:05;;;;;;;3.20;2.45;;;;;;;;;;5008426;28;20025;-78
2023/08/20 04:24:31;;;;;;;4.20;2.70;;;;;;;;;;5010408;28;20041;-78
2023/08/20 04:26:57;;;;;;;4.05;2.85;;;;;;;;;;5010208;28;20438;-78
2023/08/20 04:29:23;;;;;;;5.03;2.95;;;;;;;;;;5004620;28;20443;-78
2023/08/20 04:31:49;;;;;;;2.92;2.33;;;;;;;;;;5008460;28;20394;-78
2023/08/20 04:34:15;;;;;;;4.90;2.65;;;;;;;;;;5010338;28;20398;-78
2023/08/20 04:36:41;;;;;;;3.67;2.75;;;;;;;;;;5010101;28;20030;-78
2023/08/20 04:39:07;;;;;;;3.70;2.72;;;;;;;;;;5005678;28;20042;-78
2023/08/20 04:41:36;;;;;;;3.28;2.75;;;;;;;;;;5007376;28;20032;-78
2023/08/20 04:44:02;;;;;;;5.05;3.08;;;;;;;;;;5010155;28;20026;-78
2023/08/20 04:46:28;;;;;;;2.83;2.35;;;;;;;;;;5010339;28;20109;-77
2023/08/20 04:48:54;;;;;;;4.22;2.55;;;;;;;;;;5009977;28;20498;-78
2023/08/20 04:51:20;;;;;;;4.68;2.90;;;;;;;;;;5016904;28;20036;-78
2023/08/20 04:53:47;;;;;;;3.78;2.53;;;;;;;;;;5006376;28;20018;-78
2023/08/20 04:56:13;;;;;;;4.22;3.08;;;;;;;;;;5009932;28;20022;-78
2023/08/20 04:58:39;;;;;;;3.65;2.88;;;;;;;;;;5009652;28;20026;-78
2023/08/20 05:01:05;;;;;;;2.85;2.30;;;;;;;;;;5006684;28;20042;-78
2023/08/20 05:03:31;;;;;;;5.82;3.30;;;;;;;;;;4996076;28;20647;-78
2023/08/20 05:05:57;;;;;;;4.28;2.80;;;;;;;;;;5007583;28;20030;-78
2023/08/20 05:08:23;;;;;;;4.63;3.00;;;;;;;;;;4990898;28;20027;-78
2023/08/20 05:10:50;;;;;;;5.05;3.08;;;;;;;;;;4989970;28;20023;-78
2023/08/20 05:13:16;;;;;;;3.42;2.42;;;;;;;;;;5008752;28;20037;-78
2023/08/20 05:15:42;;;;;;;4.55;3.35;;;;;;;;;;4994741;28;20659;-78
2023/08/20 05:18:08;;;;;;;4.05;2.83;;;;;;;;;;4989833;28;20077;-78
2023/08/20 05:20:34;;;;;;;3.42;2.47;;;;;;;;;;5001837;28;20072;-78
2023/08/20 05:23:00;;;;;;;4.20;2.60;;;;;;;;;;5008556;28;20034;-78
2023/08/20 05:25:26;;;;;;;3.33;2.50;;;;;;;;;;5004872;28;20045;-78
2023/08/20 05:27:52;;;;;;;4.57;3.13;;;;;;;;;;5006528;28;20096;-78
2023/08/20 05:30:18;;;;;;;3.67;2.70;;;;;;;;;;5007351;28;20021;-78
2023/08/20 05:32:44;;;;;;;4.90;2.92;;;;;;;;;;5008318;28;20034;-78
2023/08/20 05:35:10;;;;;;;3.15;2.50;;;;;;;;;;5007934;28;20034;-78
2023/08/20 05:37:36;;;;;;;3.33;2.70;;;;;;;;;;4990389;28;20494;-78
2023/08/20 05:40:02;;;;;;;4.00;2.75;;;;;;;;;;4999930;28;20037;-78
2023/08/20 05:42:28;;;;;;;3.63;2.90;;;;;;;;;;5007773;28;20022;-78
2023/08/20 05:44:54;;;;;;;3.63;2.53;;;;;;;;;;5003969;28;20485;-78
2023/08/20 05:47:20;;;;;;;2.85;2.25;;;;;;;;;;4990176;28;20049;-79
2023/08/20 05:49:46;;;;;;;4.43;2.17;;;;;;;;;;4995144;28;20502;-78
2023/08/20 05:52:12;;;;;;;2.53;2.30;;;;;;;;;;5007886;28;20036;-78
2023/08/20 05:54:38;;;;;;;4.70;3.13;;;;;;;;;;5007554;28;20034;-78
2023/08/20 05:57:04;;;;;;;4.22;2.88;;;;;;;;;;4996793;28;20035;-78
2023/08/20 05:59:30;;;;;;;3.10;2.65;;;;;;;;;;4990505;28;20050;-78
2023/08/20 06:01:56;;;;;;;4.32;2.75;;;;;;;;;;5008098;28;20525;-78
2023/08/20 06:04:22;;;;;;;4.15;3.20;;;;;;;;;;5009083;28;20030;-78
2023/08/20 06:06:48;;;;;;;3.63;2.60;;;;;;;;;;5005757;28;20052;-78
2023/08/20 06:09:14;;;;;;;2.78;2.20;;;;;;;;;;5000198;28;20490;-78
2023/08/20 06:11:40;;;;;;;4.90;2.88;;;;;;;;;;4990473;28;20026;-78
2023/08/20 06:14:06;;;;;;;3.80;2.67;;;;;;;;;;5007279;28;20113;-78
2023/08/20 06:16:32;;;;;;;5.32;2.42;;;;;;;;;;5006910;28;20368;-79
2023/08/20 06:18:58;;;;;;;3.42;2.58;;;;;;;;;;5003700;28;20394;-78
2023/08/20 06:21:24;;;;;;;4.13;2.75;;;;;;;;;;4999027;28;20061;-78
2023/08/20 06:23:50;;;;;;;4.13;2.65;;;;;;;;;;5009785;28;20040;-78
2023/08/20 06:26:16;;;;;;;3.33;2.65;;;;;;;;;;4999888;28;20051;-78
2023/08/20 06:28:43;;;;;;;2.88;2.22;;;;;;;;;;4997158;28;20030;-78
2023/08/20 06:31:08;;;;;;;2.67;2.20;;;;;;;;;;4988792;28;20026;-78
2023/08/20 06:33:35;;;;;;;3.95;2.38;;;;;;;;;;4987665;28;20030;-79
2023/08/20 06:36:00;;;;;;;3.63;2.65;;;;;;;;;;4993206;28;20030;-78
2023/08/20 06:38:26;;;;;;;2.88;2.05;;;;;;;;;;4999653;28;20501;-78
2023/08/20 06:40:53;;;;;;;2.97;2.15;;;;;;;;;;5007031;28;20018;-78
2023/08/20 06:43:19;;;;;;;3.05;2.30;;;;;;;;;;4996660;28;20022;-79
2023/08/20 06:45:45;;;;;;;2.65;2.10;;;;;;;;;;5002275;28;20438;-78
2023/08/20 06:48:11;;;;;;;2.47;1.85;;;;;;;;;;4994535;28;20037;-78
2023/08/20 06:50:37;;;;;;;3.03;2.60;;;;;;;;;;5012328;28;20029;-78
2023/08/20 06:53:03;;;;;;;3.17;2.17;;;;;;;;;;5012066;28;20096;-78
2023/08/20 06:55:29;;;;;;;3.30;2.85;;;;;;;;;;5007435;28;20034;-78
2023/08/20 06:57:55;;;;;;;5.18;2.97;;;;;;;;;;5000308;28;20391;-79
2023/08/20 07:00:21;;;;;;;2.92;2.47;;;;;;;;;;4992069;28;20402;-78
2023/08/20 07:02:47;;;;;;;2.60;2.03;;;;;;;;;;4992342;28;20491;-79
2023/08/20 07:05:14;;;;;;;3.17;2.63;;;;;;;;;;5000547;28;20037;-79
2023/08/20 07:07:40;;;;;;;4.10;3.00;;;;;;;;;;5003038;28;20052;-79
2023/08/20 07:10:09;;;;;;;3.90;2.58;;;;;;;;;;4993612;28;20704;-79
2023/08/20 07:12:35;;;;;;;2.75;2.03;;;;;;;;;;4998778;28;20034;-79
2023/08/20 07:15:01;;;;;;;3.05;2.60;;;;;;;;;;5002368;28;20394;-79
2023/08/20 07:17:27;;;;;;;3.00;2.40;;;;;;;;;;5011932;28;20052;-79
2023/08/20 07:19:53;;;;;;;11.52;2.33;;;;;;;;;;5011725;28;20022;-79
2023/08/20 07:22:19;;;;;;;2.80;2.22;;;;;;;;;;5011315;28;20030;-78
2023/08/20 07:24:45;;;;;;;2.95;2.08;;;;;;;;;;5009232;28;20025;-79
2023/08/20 07:27:12;;;;;;;2.83;2.20;;;;;;;;;;5007476;28;20041;-79
2023/08/20 07:29:38;;;;;;;2.53;1.90;;;;;;;;;;5011617;28;20053;-79
2023/08/20 07:32:04;;;;;;;4.05;2.70;;;;;;;;;;5011443;28;20041;-79
2023/08/20 07:34:30;;;;;;;3.58;2.15;;;;;;;;;;5010611;28;20382;-79
2023/08/20 07:36:57;;;;;;;4.22;2.90;;;;;;;;;;5004926;28;20667;-79
2023/08/20 07:39:22;;;;;;;3.35;2.63;;;;;;;;;;4991926;28;20383;-79
2023/08/20 07:41:48;;;;;;;4.55;2.65;;;;;;;;;;4991558;28;20014;-79
2023/08/20 07:44:14;;;;;;;3.10;2.30;;;;;;;;;;4991835;28;20823;-79
2023/08/20 07:46:42;;;;;;;2.88;2.30;;;;;;;;;;5000675;28;20034;-79
2023/08/20 07:49:08;;;;;;;4.78;2.40;;;;;;;;;;5002118;28;20049;-78
2023/08/20 07:51:34;;;;;;;3.13;2.33;;;;;;;;;;4991728;28;20034;-78
2023/08/20 07:54:00;;;;;;;4.18;2.70;;;;;;;;;;4991561;28;20034;-79
2023/08/20 07:56:26;;;;;;;2.25;2.05;;;;;;;;;;4999499;28;20030;-78
2023/08/20 07:58:52;;;;;;;2.35;1.98;;;;;;;;;;5006806;28;20038;-78
2023/08/20 08:01:18;;;;;;;3.60;2.30;;;;;;;;;;4997899;28;20069;-78
2023/08/20 08:03:44;;;;;;;3.08;2.45;;;;;;;;;;4990430;28;20057;-79
2023/08/20 08:06:10;;;;;;;3.30;2.30;;;;;;;;;;4993817;28;20034;-79
2023/08/20 08:08:39;;;;;;;2.72;2.00;;;;;;;;;;5009253;28;20018;-79
2023/08/20 08:11:05;;;;;;;2.40;1.83;;;;;;;;;;4996297;28;20026;-79
2023/08/20 08:13:31;;;;;;;2.13;1.85;;;;;;;;;;4991213;28;20038;-79
2023/08/20 08:15:57;;;;;;;3.67;2.08;;;;;;;;;;4990606;28;20030;-79
2023/08/20 08:18:23;;;;;;;2.80;2.15;;;;;;;;;;4994260;28;20033;-79
2023/08/20 08:20:49;;;;;;;2.53;1.77;;;;;;;;;;5008452;28;20022;-78
2023/08/20 08:23:15;;;;;;;2.60;2.15;;;;;;;;;;5009335;28;20061;-79
2023/08/20 08:25:41;;;;;;;2.72;2.28;;;;;;;;;;5010786;28;20026;-79
2023/08/20 08:28:07;;;;;;;3.03;2.20;;;;;;;;;;5010354;28;20045;-79
2023/08/20 08:30:33;;;;;;;2.20;1.85;;;;;;;;;;5006683;28;20034;-78
2023/08/20 08:32:59;;;;;;;2.78;2.10;;;;;;;;;;5010205;28;20025;-79
2023/08/20 08:35:25;;;;;;;2.78;2.05;;;;;;;;;;5010319;28;20038;-79
2023/08/20 08:37:51;;;;;;;3.92;1.90;;;;;;;;;;5010266;28;20018;-79
2023/08/20 08:40:18;;;;;;;2.95;2.20;;;;;;;;;;5007643;28;20425;-79
2023/08/20 08:42:46;;;;;;;2.58;2.17;;;;;;;;;;5004576;28;20026;-79
2023/08/20 08:45:12;;;;;;;2.55;1.77;;;;;;;;;;5009039;28;20034;-79
2023/08/20 08:47:40;;;;;;;2.50;1.92;;;;;;;;;;5010106;28;20030;-79
2023/08/20 08:50:06;;;;;;;2.47;2.05;;;;;;;;;;5008605;28;20037;-79
2023/08/20 08:52:32;;;;;;;2.67;2.25;;;;;;;;;;5007306;28;20021;-79
2023/08/20 08:54:58;;;;;;;2.25;1.65;;;;;;;;;;5008681;28;20034;-79
2023/08/20 08:57:24;;;;;;;2.50;1.92;;;;;;;;;;5009777;28;20033;-78
2023/08/20 08:59:50;;;;;;;3.40;2.35;;;;;;;;;;5009714;28;20049;-78
2023/08/20 09:02:18;;;;;;;3.47;2.25;;;;;;;;;;4999002;28;20031;-77
2023/08/20 09:04:45;;;;;;;2.28;2.08;;;;;;;;;;5006587;28;20029;-77
2023/08/20 09:07:12;;;;;;;2.03;1.52;;;;;;;;;;4989507;28;20130;-78
2023/08/20 09:09:38;;;;;;;2.33;1.80;;;;;;;;;;4989891;28;20093;-78
2023/08/20 09:12:12;;;;;;;2.75;1.88;;;;;;;;;;4998363;28;20034;-77
2023/08/20 09:14:38;;;;;;;2.88;2.05;;;;;;;;;;4989902;28;20022;-78
2023/08/20 09:17:04;;;;;;;2.20;2.00;;;;;;;;;;5008566;28;20387;-78
2023/08/20 09:19:35;;;;;;;2.85;1.85;;;;;;;;;;5009636;28;20025;-77
2023/08/20 09:22:01;;;;;;;4.68;2.47;;;;;;;;;;5000352;28;20026;-78
2023/08/20 09:24:34;;;;;;;2.58;2.00;;;;;;;;;;5001118;28;20041;-78
2023/08/20 09:27:00;;;;;;;2.33;1.77;;;;;;;;;;5006380;28;20034;-78
2023/08/20 09:29:26;;;;;;;2.75;2.10;;;;;;;;;;5002000;28;20466;-78
2023/08/20 09:32:00;;;;;;;2.13;1.80;;;;;;;;;;4989530;28;20026;-78
2023/08/20 09:34:27;;;;;;;3.38;1.98;;;;;;;;;;4989824;28;20034;-78
2023/08/20 09:36:53;;;;;;;2.38;1.92;;;;;;;;;;4996131;28;20014;-78
2023/08/20 09:39:19;;;;;;;2.38;1.92;;;;;;;;;;5010513;28;20080;-78
2023/08/20 09:41:47;;;;;;;2.40;1.90;;;;;;;;;;5009197;28;20045;-78
2023/08/20 09:44:15;;;;;;;2.25;1.77;;;;;;;;;;5009211;28;20445;-78
2023/08/20 09:46:42;;;;;;;1.90;1.55;;;;;;;;;;5008736;28;20429;-78
2023/08/20 09:49:09;;;;;;;2.58;1.92;;;;;;;;;;5006231;28;20036;-78
2023/08/20 09:51:36;;;;;;;2.95;2.15;;;;;;;;;;5005141;28;20040;-78
2023/08/20 09:54:13;;;;;;;2.60;1.85;;;;;;;;;;5008211;28;20022;-78
2023/08/20 09:56:40;;;;;;;2.50;2.10;;;;;;;;;;5008945;28;20022;-78
2023/08/20 09:59:06;;;;;;;3.30;2.10;;;;;;;;;;5007378;28;20095;-78
2023/08/20 10:01:32;;;;;;;2.20;1.58;;;;;;;;;;5005279;28;20517;-79
2023/08/20 10:03:59;;;;;;;2.67;2.03;;;;;;;;;;5008733;28;20025;-78
2023/08/20 10:06:25;;;;;;;3.35;2.42;;;;;;;;;;4992490;28;20037;-78
2023/08/20 10:08:51;;;;;;;2.22;1.80;;;;;;;;;;4998341;28;20038;-78
2023/08/20 10:11:17;;;;;;;2.90;1.83;;;;;;;;;;5001576;28;20053;-78
2023/08/20 10:13:43;;;;;;;3.28;2.25;;;;;;;;;;5008139;28;20034;-78
2023/08/20 10:16:13;;;;;;;1.73;1.50;;;;;;;;;;5008385;28;20037;-78
2023/08/20 10:18:39;;;;;;;3.53;1.90;;;;;;;;;;4996288;28;20019;-78
2023/08/20 10:21:08;;;;;;;2.53;1.90;;;;;;;;;;5006729;28;20402;-79
2023/08/20 10:23:34;;;;;;;2.47;1.92;;;;;;;;;;5005289;28;20101;-77
2023/08/20 10:26:10;;;;;;;1.95;1.50;;;;;;;;;;5005346;28;20029;-77
2023/08/20 10:28:36;;;;;;;2.22;1.75;;;;;;;;;;5002402;28;20045;-78
2023/08/20 10:31:09;;;;;;;1.98;1.50;;;;;;;;;;4997802;28;20414;-78
2023/08/20 10:33:55;;;;;;;1.85;1.63;;;;;;;;;;4988891;28;20129;-78
2023/08/20 10:36:26;;;;;;;1.73;1.63;;;;;;;;;;4988624;28;20041;-78
2023/08/20 10:38:56;;;;;;;2.33;1.80;;;;;;;;;;4989411;28;20026;-78
2023/08/20 10:41:26;;;;;;;2.92;1.98;;;;;;;;;;4988633;28;20579;-78
2023/08/20 10:43:52;;;;;;;2.55;2.15;;;;;;;;;;4988596;28;20113;-78
2023/08/20 10:46:23;;;;;;;2.28;1.73;;;;;;;;;;4988480;28;20558;-78
2023/08/20 10:48:50;;;;;;;2.83;1.85;;;;;;;;;;4989165;28;20066;-78
2023/08/20 10:51:20;;;;;;;1.67;1.45;;;;;;;;;;5002716;28;20167;-78
2023/08/20 10:54:03;;;;;;;1.80;1.70;;;;;;;;;;5007214;28;20033;-78
2023/08/20 10:56:45;;;;;;;2.50;1.90;;;;;;;;;;5008103;28;20025;-78
2023/08/20 10:59:18;;;;;;;2.50;1.70;;;;;;;;;;5007761;28;20477;-78
2023/08/20 11:01:45;;;;;;;2.15;1.83;;;;;;;;;;5004905;28;20026;-78
2023/08/20 11:04:11;;;;;;;2.38;1.58;;;;;;;;;;5007148;28;20036;-77
2023/08/20 11:06:38;;;;;;;1.65;1.52;;;;;;;;;;5007072;28;20123;-79
2023/08/20 11:09:05;;;;;;;1.75;1.55;;;;;;;;;;5008229;28;20025;-78
2023/08/20 11:11:31;;;;;;;3.60;1.83;;;;;;;;;;5005503;28;20121;-79
2023/08/20 11:13:57;;;;;;;2.38;1.60;;;;;;;;;;5005316;28;20026;-78
2023/08/20 11:16:23;;;;;;;2.47;1.88;;;;;;;;;;5007364;28;20050;-79
2023/08/20 11:18:53;;;;;;;1.73;1.42;;;;;;;;;;5008000;28;20030;-78
2023/08/20 11:21:19;;;;;;;2.63;1.83;;;;;;;;;;5007355;28;20033;-78
2023/08/20 11:23:47;;;;;;;2.35;1.67;;;;;;;;;;5005925;28;20036;-78
2023/08/20 11:26:13;;;;;;;1.88;1.52;;;;;;;;;;5007643;28;20037;-78
2023/08/20 11:28:39;;;;;;;2.67;1.90;;;;;;;;;;5007936;28;20045;-78
2023/08/20 11:31:05;;;;;;;2.35;1.80;;;;;;;;;;5009846;28;20038;-78
2023/08/20 11:33:31;;;;;;;2.28;1.63;;;;;;;;;;4999251;28;20030;-79
2023/08/20 11:35:57;;;;;;;2.38;1.90;;;;;;;;;;5009065;28;20030;-78
2023/08/20 11:38:25;;;;;;;2.35;2.05;;;;;;;;;;5011458;28;20041;-79
2023/08/20 11:40:51;;;;;;;2.33;1.98;;;;;;;;;;5011362;28;20052;-78
2023/08/20 11:43:17;;;;;;;2.22;1.60;;;;;;;;;;5009805;28;20034;-79
2023/08/20 11:45:47;;;;;;;1.80;1.50;;;;;;;;;;5008582;28;20038;-78
2023/08/20 11:48:13;;;;;;;2.25;1.90;;;;;;;;;;5010975;28;20128;-78
2023/08/20 11:50:40;;;;;;;2.00;1.80;;;;;;;;;;5011001;28;20434;-79
2023/08/20 11:53:06;;;;;;;1.50;1.40;;;;;;;;;;5009299;28;21745;-78
2023/08/20 11:55:32;;;;;;;2.30;1.55;;;;;;;;;;4992211;28;20030;-79
2023/08/20 11:57:58;;;;;;;1.83;1.70;;;;;;;;;;5003581;28;20026;-79
2023/08/20 12:00:28;;;;;;;2.05;1.80;;;;;;;;;;5010601;28;20406;-79
2023/08/20 12:02:57;;;;;;;1.67;1.52;;;;;;;;;;5011154;28;20030;-79
2023/08/20 12:05:29;;;;;;;1.48;1.38;;;;;;;;;;5006852;28;20049;-79
2023/08/20 12:08:02;;;;;;;1.65;1.50;;;;;;;;;;5006599;28;20490;-79
2023/08/20 12:10:29;;;;;;;1.60;1.42;;;;;;;;;;5001282;28;20042;-79
2023/08/20 12:12:58;;;;;;;1.60;1.25;;;;;;;;;;4991314;28;20101;-78
2023/08/20 12:15:25;;;;;;;2.08;1.60;;;;;;;;;;4991574;28;20118;-79
2023/08/20 12:17:58;;;;;;;1.30;1.20;;;;;;;;;;5003835;28;20032;-79
2023/08/20 12:20:24;;;;;;;1.35;1.23;;;;;;;;;;5004408;28;20034;-79
2023/08/20 12:22:50;;;;;;;1.75;1.50;;;;;;;;;;4993403;28;20057;-79
2023/08/20 12:25:16;;;;;;;1.80;1.60;;;;;;;;;;4990958;28;20026;-78
2023/08/20 12:27:42;;;;;;;1.83;1.48;;;;;;;;;;5005188;28;20018;-79
2023/08/20 12:30:12;;;;;;;1.50;1.40;;;;;;;;;;5007347;28;20029;-78
2023/08/20 12:32:37;;;;;;;1.50;1.40;;;;;;;;;;4992651;28;20363;-79
2023/08/20 12:35:04;;;;;;;1.85;1.55;;;;;;;;;;4990849;28;20078;-79
2023/08/20 12:37:30;;;;;;;1.85;1.40;;;;;;;;;;5008384;28;20045;-79
2023/08/20 12:40:03;;;;;;;1.20;1.10;;;;;;;;;;5000200;28;20600;-79
2023/08/20 12:42:29;;;;;;;1.40;1.30;;;;;;;;;;5002248;28;20549;-79
2023/08/20 12:44:56;;;;;;;1.38;1.20;;;;;;;;;;4997941;28;20027;-79
2023/08/20 12:47:22;;;;;;;1.38;1.27;;;;;;;;;;5003682;28;20112;-79
2023/08/20 12:49:48;;;;;;;1.20;1.10;;;;;;;;;;4997842;28;20503;-79
2023/08/20 12:52:16;;;;;;;2.13;1.40;;;;;;;;;;4990512;28;20026;-79
2023/08/20 12:54:42;;;;;;;2.95;1.38;;;;;;;;;;4990216;28;20026;-79
2023/08/20 12:57:14;;;;;;;1.48;1.30;;;;;;;;;;4990202;28;20018;-79
2023/08/20 12:59:43;;;;;;;1.27;1.17;;;;;;;;;;5003858;28;20117;-79
2023/08/20 13:02:09;;;;;;;1.25;1.13;;;;;;;;;;4997231;28;20030;-79
2023/08/20 13:04:38;;;;;;;1.73;1.48;;;;;;;;;;5010035;28;20061;-79
2023/08/20 13:07:07;;;;;;;0.95;0.95;;;;;;;;;;5008279;28;20034;-79
2023/08/20 13:09:33;;;;;;;1.30;1.20;;;;;;;;;;5001591;28;20037;-77
2023/08/20 13:12:03;;;;;;;2.17;1.58;;;;;;;;;;5003508;28;20038;-77
2023/08/20 13:14:30;;;;;;;;;;;;;;;;;;5009412;28;20049;-79
2023/08/20 13:16:56;;;;;;;1.40;1.30;;;;;;;;;;5009513;28;20274;-77
2023/08/20 13:19:22;;;;;;;1.88;1.52;;;;;;;;;;4995471;28;20022;-77
2023/08/20 13:21:48;;;;;;;0.90;0.90;;;;;;;;;;5008676;28;20021;-77
2023/08/20 13:24:14;;;;;;;1.20;1.10;;;;;;;;;;5009582;28;20403;-77
2023/08/20 13:26:40;;;;;;;1.20;1.10;;;;;;;;;;5007046;28;20044;-77
2023/08/20 13:29:12;;;;;;;1.10;1.00;;;;;;;;;;5004857;28;20034;-79
2023/08/20 13:31:38;;;;;;;1.83;1.13;;;;;;;;;;4999678;28;20018;-79
2023/08/20 13:34:04;;;;;;;1.63;1.30;;;;;;;;;;5007847;28;20059;-77
2023/08/20 13:36:33;;;;;;;1.33;1.23;;;;;;;;;;5009462;28;20231;-77
2023/08/20 13:38:59;;;;;;;1.27;1.15;;;;;;;;;;5000024;28;20571;-77
2023/08/20 13:41:25;;;;;;;1.73;1.50;;;;;;;;;;4998655;28;20038;-79
2023/08/20 13:43:53;;;;;;;1.13;0.93;;;;;;;;;;4997454;28;20036;-79
2023/08/20 13:46:20;;;;;;;1.40;1.30;;;;;;;;;;5006183;28;20672;-77
2023/08/20 13:48:46;;;;;;;1.60;1.40;;;;;;;;;;4990524;28;20428;-79
2023/08/20 13:51:12;;;;;;;1.67;1.17;;;;;;;;;;4989389;28;20475;-77
2023/08/20 13:53:38;;;;;;;1.25;1.15;;;;;;;;;;4989641;28;20041;-77
2023/08/20 13:56:04;;;;;;;1.10;1.00;;;;;;;;;;5007505;28;20509;-76
2023/08/20 13:58:30;;;;;;;1.33;1.10;;;;;;;;;;5007790;28;20545;-76
2023/08/20 14:00:56;;;;;;;1.15;1.05;;;;;;;;;;5008112;28;20064;-77
2023/08/20 14:03:22;;;;;;;1.50;1.20;;;;;;;;;;5007630;28;20034;-77
2023/08/20 14:05:48;;;;;;;1.38;1.00;;;;;;;;;;5007346;28;20030;-77
2023/08/20 14:08:14;;;;;;;2.55;1.70;;;;;;;;;;5007961;28;20539;-77
2023/08/20 14:10:40;;;;;;;1.77;1.40;;;;;;;;;;5007906;28;20026;-77
2023/08/20 14:13:06;;;;;;;1.20;1.10;;;;;;;;;;4998526;28;20037;-77
2023/08/20 14:15:32;;;;;;;2.22;1.25;;;;;;;;;;5006666;28;20038;-77
2023/08/20 14:17:58;;;;;;;1.40;1.30;;;;;;;;;;5008265;28;20029;-76
2023/08/20 14:20:27;;;;;;;1.40;1.10;;;;;;;;;;5008661;28;20486;-77
2023/08/20 14:22:53;;;;;;;1.30;1.15;;;;;;;;;;5008658;28;20247;-77
2023/08/20 14:25:19;;;;;;;3.03;1.40;;;;;;;;;;5005110;28;20695;-77
2023/08/20 14:27:45;;;;;;;1.60;1.10;;;;;;;;;;5001750;28;20584;-77
2023/08/20 14:30:11;;;;;;;2.80;1.33;;;;;;;;;;4995621;28;20033;-76
2023/08/20 14:32:37;;;;;;;1.10;1.00;;;;;;;;;;4990568;28;20030;-77
2023/08/20 14:35:03;;;;;;;1.20;1.10;;;;;;;;;;4997514;28;20044;-76
2023/08/20 14:37:32;;;;;;;1.05;0.98;;;;;;;;;;5008504;28;20117;-77
2023/08/20 14:39:58;;;;;;;1.77;1.20;;;;;;;;;;5008615;28;20558;-77
2023/08/20 14:42:24;;;;;;;1.30;1.17;;;;;;;;;;5001047;28;20026;-77